METAR Data
IDs: Format: Raw Decoded Include TAF

Data at: 0740 UTC 28 Sep 2022

KSYN 280735Z AUTO 00000KT 10SM CLR 00/M01 A3045 RMK AO2 T10041011
KSYN 280715Z AUTO 00000KT 10SM CLR 00/M01 A3045 RMK AO2 T10011010
KSYN 280655Z AUTO 22003KT 10SM CLR 00/M01 A3044 RMK AO2 T00001008
KSYN 280635Z AUTO 00000KT 10SM CLR 00/M01 A3043 RMK AO2 T00001010
KSYN 280615Z AUTO 00000KT 10SM CLR 00/M01 A3042 RMK AO2 T00001009
KSYN 280555Z AUTO 21003KT 10SM CLR 00/00 A3042 RMK AO2 T00021004 10099 20000 401520000
KSYN 280535Z AUTO 00000KT 10SM CLR 01/00 A3042 RMK AO2 T00071002
KSYN 280515Z AUTO 00000KT 10SM CLR 01/00 A3041 RMK AO2 T00091001
KSYN 280455Z AUTO 00000KT 10SM CLR 01/00 A3041 RMK AO2 T00110000
KSYN 280435Z AUTO 17003KT 10SM CLR 01/00 A3041 RMK AO2 T00091001
KSYN 280415Z AUTO 00000KT 10SM CLR 01/00 A3040 RMK AO2 T00140000
KSYN 280355Z AUTO 20003KT 10SM CLR 02/00 A3039 RMK AO2 T00150001
KSYN 280335Z AUTO 19003KT 10SM CLR 02/00 A3039 RMK AO2 T00230003
KSYN 280315Z AUTO 20003KT 10SM CLR 03/01 A3038 RMK AO2 T00340011
KSYN 280255Z AUTO 00000KT 10SM CLR 04/01 A3037 RMK AO2 T00360010
KSYN 280235Z AUTO 00000KT 10SM CLR 05/02 A3037 RMK AO2 T00520018
KSYN 280215Z AUTO 00000KT 10SM CLR 06/01 A3036 RMK AO2 T00560012
KSYN 280155Z AUTO 00000KT 10SM CLR 06/01 A3036 RMK AO2 T00590009
KSYN 280135Z AUTO 02005KT 10SM CLR 06/01 A3035 RMK AO2 T00550010
KSYN 280115Z AUTO 03004KT 10SM CLR 07/01 A3034 RMK AO2 T00730012
KSYN 280055Z AUTO 05003KT 10SM CLR 07/01 A3033 RMK AO2 T00700010
KSYN 280035Z AUTO 05004KT 10SM CLR 08/01 A3032 RMK AO2 T00770007
KSYN 280015Z AUTO 05005KT 10SM CLR 09/01 A3032 RMK AO2 T00910006
KSYN 272355Z AUTO 04005KT 10SM CLR 11/00 A3032 RMK AO2 T01070000 10152 20107
KSYN 272335Z AUTO 04006KT 10SM CLR 12/00 A3031 RMK AO2 T01221005
KSYN 272315Z AUTO 02008KT 10SM CLR 13/M01 A3031 RMK AO2 T01301011
KSYN 272255Z AUTO 02008KT 10SM CLR 14/M02 A3030 RMK AO2 T01361018
KSYN 272235Z AUTO 02011KT 10SM CLR 14/M02 A3029 RMK AO2 T01381021
KSYN 272215Z AUTO 01009G15KT 10SM CLR 14/M02 A3029 RMK AO2 T01421022
KSYN 272155Z AUTO 36010KT 10SM CLR 14/M03 A3029 RMK AO2 T01431026
KSYN 272135Z AUTO 36010KT 10SM CLR 15/M02 A3028 RMK AO2 T01461021
KSYN 272115Z AUTO 01008G16KT 10SM CLR 15/M02 A3027 RMK AO2 T01481019
KSYN 272055Z AUTO 01009KT 10SM CLR 15/M02 A3027 RMK AO2 T01451022
KSYN 272035Z AUTO 01010G15KT 10SM CLR 15/M02 A3027 RMK AO2 T01521021
KSYN 272015Z AUTO 03008G16KT 10SM CLR 15/M02 A3027 RMK AO2 T01461021
KSYN 271955Z AUTO 04011KT 10SM CLR 15/M02 A3026 RMK AO2 T01471022
KSYN 271935Z AUTO 36008G19KT 10SM CLR 15/M01 A3026 RMK AO2 T01491014
KSYN 271915Z AUTO 34010G14KT 320V030 10SM CLR 14/M02 A3027 RMK AO2 T01421022
KSYN 271855Z AUTO 36008KT 10SM CLR 14/M02 A3027 RMK AO2 T01441023
KSYN 271835Z AUTO 36012KT 10SM CLR 14/M02 A3027 RMK AO2 T01421018
KSYN 271815Z AUTO 33012KT 10SM CLR 14/M01 A3027 RMK AO2 T01371009
KSYN 271755Z AUTO 36007KT 340V050 10SM CLR 14/00 A3027 RMK AO2 T01371005 10138 20045
KSYN 271735Z AUTO 35007G16KT 10SM CLR 13/M01 A3027 RMK AO2 T01341006
KSYN 271715Z AUTO 34012KT 10SM CLR 13/M01 A3026 RMK AO2 T01331006
KSYN 271655Z AUTO 35011G16KT 10SM CLR 13/M01 A3026 RMK AO2 T01311013
KSYN 271635Z AUTO 35010KT 10SM CLR 13/00 A3026 RMK AO2 T01260000
KSYN 271615Z AUTO 33011G14KT 10SM CLR 12/01 A3025 RMK AO2 T01220006
KSYN 271555Z AUTO 01009KT 10SM CLR 11/01 A3025 RMK AO2 T01140009
KSYN 271535Z AUTO 36008KT 10SM CLR 11/02 A3025 RMK AO2 T01110018
KSYN 271515Z AUTO 36010G14KT 340V040 10SM CLR 11/02 A3024 RMK AO2 T01050015
KSYN 271455Z AUTO 01009KT 10SM CLR 10/02 A3024 RMK AO2 T01020020
KSYN 271435Z AUTO 01008KT 10SM CLR 10/03 A3023 RMK AO2 T00960025
KSYN 271415Z AUTO 36009KT 10SM CLR 09/03 A3022 RMK AO2 T00910033
KSYN 271355Z AUTO 02007KT 10SM CLR 09/04 A3021 RMK AO2 T00860040